CheckWX is a tool to help pilots better visualize weather data.  It is not intended as a substitute for an official pre-flight weather briefing.

10:08:12 UTC

SBMG METAR
Regional de Maringá - Sílvio Nane Junior Airport
Maringá, Brazil
Current

1 hour ago

SBMG 220900Z 16005KT CAVOK 15/14 Q1017
Observed
Sep-22 @ 09:00 UTC
Wind
  • 160° at 5 KTS
Visibility
10,000+ meters
Flight Rules
VFR
Cloud Levels
  • Clear skies
Temperature
15°C / 59°F
Dewpoint
14°C / 57°F
Humidity
94%
Altimeter
30.03" Hg
Pressure
1016.92 hPa
Previous

2 hours ago

SBMG 220800Z 15007KT CAVOK 16/15 Q1016
Observed
Sep-22 @ 08:00 UTC
Wind
  • 150° at 7 KTS
Visibility
10,000+ meters
Flight Rules
VFR
Cloud Levels
  • Clear skies
Temperature
16°C / 61°F
Dewpoint
15°C / 59°F
Humidity
94%
Altimeter
30" Hg
Pressure
1015.92 hPa
Previous

3 hours ago

SBMG 220700Z 15006KT CAVOK 16/15 Q1016
Observed
Sep-22 @ 07:00 UTC
Wind
  • 150° at 6 KTS
Visibility
10,000+ meters
Flight Rules
VFR
Cloud Levels
  • Clear skies
Temperature
16°C / 61°F
Dewpoint
15°C / 59°F
Humidity
94%
Altimeter
30" Hg
Pressure
1015.92 hPa